sensor_id;sensor_type;location;lat;lon;timestamp;pressure;altitude;pressure_sealevel;temperature
26158;BMP280;67284;44.782;10.282;2023-04-16T00:02:48;100451.69;;;13.70
26158;BMP280;67284;44.782;10.282;2023-04-16T00:07:40;100450.84;;;13.69
26158;BMP280;67284;44.782;10.282;2023-04-16T00:12:32;100444.91;;;13.66
26158;BMP280;67284;44.782;10.282;2023-04-16T00:17:24;100440.59;;;13.66
26158;BMP280;67284;44.782;10.282;2023-04-16T00:22:16;100435.53;;;13.62
26158;BMP280;67284;44.782;10.282;2023-04-16T00:27:08;100426.13;;;13.59
26158;BMP280;67284;44.782;10.282;2023-04-16T00:32:00;100433.88;;;13.59
26158;BMP280;67284;44.782;10.282;2023-04-16T00:36:52;100432.97;;;13.60
26158;BMP280;67284;44.782;10.282;2023-04-16T00:41:45;100428.75;;;13.58
26158;BMP280;67284;44.782;10.282;2023-04-16T00:46:37;100430.56;;;13.54
26158;BMP280;67284;44.782;10.282;2023-04-16T00:51:29;100430.56;;;13.54
26158;BMP280;67284;44.782;10.282;2023-04-16T00:56:23;100440.06;;;13.54
26158;BMP280;67284;44.782;10.282;2023-04-16T01:01:18;100444.28;;;13.56
26158;BMP280;67284;44.782;10.282;2023-04-16T01:06:10;100440.16;;;13.51
26158;BMP280;67284;44.782;10.282;2023-04-16T01:11:02;100438.56;;;13.46
26158;BMP280;67284;44.782;10.282;2023-04-16T01:15:55;100436.06;;;13.43
26158;BMP280;67284;44.782;10.282;2023-04-16T01:20:48;100435.16;;;13.44
26158;BMP280;67284;44.782;10.282;2023-04-16T01:25:40;100428.22;;;13.46
26158;BMP280;67284;44.782;10.282;2023-04-16T01:30:32;100437.56;;;13.50
26158;BMP280;67284;44.782;10.282;2023-04-16T01:35:47;100436.78;;;13.48
26158;BMP280;67284;44.782;10.282;2023-04-16T01:40:39;100436.91;;;13.43
26158;BMP280;67284;44.782;10.282;2023-04-16T01:45:32;100444.78;;;13.39
26158;BMP280;67284;44.782;10.282;2023-04-16T01:50:24;100431.88;;;13.37
26158;BMP280;67284;44.782;10.282;2023-04-16T01:55:16;100424.97;;;13.38
26158;BMP280;67284;44.782;10.282;2023-04-16T02:00:08;100422.38;;;13.38
26158;BMP280;67284;44.782;10.282;2023-04-16T02:05:08;100415.50;;;13.37
26158;BMP280;67284;44.782;10.282;2023-04-16T02:10:00;100422.38;;;13.38
26158;BMP280;67284;44.782;10.282;2023-04-16T02:14:52;100421.69;;;13.31
26158;BMP280;67284;44.782;10.282;2023-04-16T02:19:47;100424.38;;;13.27
26158;BMP280;67284;44.782;10.282;2023-04-16T02:24:40;100430.38;;;13.29
26158;BMP280;67284;44.782;10.282;2023-04-16T02:29:34;100430.34;;;13.30
26158;BMP280;67284;44.782;10.282;2023-04-16T02:34:33;100431.97;;;13.33
26158;BMP280;67284;44.782;10.282;2023-04-16T02:39:26;100435.56;;;13.29
26158;BMP280;67284;44.782;10.282;2023-04-16T02:44:18;100428.81;;;13.23
26158;BMP280;67284;44.782;10.282;2023-04-16T02:49:11;100431.50;;;13.17
26158;BMP280;67284;44.782;10.282;2023-04-16T02:54:03;100439.41;;;13.11
26158;BMP280;67284;44.782;10.282;2023-04-16T02:58:56;100443.09;;;13.01
26158;BMP280;67284;44.782;10.282;2023-04-16T03:03:48;100444.09;;;12.96
26158;BMP280;67284;44.782;10.282;2023-04-16T03:08:40;100448.47;;;12.94
26158;BMP280;67284;44.782;10.282;2023-04-16T03:13:32;100461.28;;;12.97
26158;BMP280;67284;44.782;10.282;2023-04-16T03:18:24;100450.00;;;13.01
26158;BMP280;67284;44.782;10.282;2023-04-16T03:23:15;100455.97;;;13.03
26158;BMP280;67284;44.782;10.282;2023-04-16T03:28:07;100468.06;;;13.02
26158;BMP280;67284;44.782;10.282;2023-04-16T03:33:01;100467.22;;;13.00
26158;BMP280;67284;44.782;10.282;2023-04-16T03:37:53;100469.94;;;12.95
26158;BMP280;67284;44.782;10.282;2023-04-16T03:42:45;100463.19;;;12.89
26158;BMP280;67284;44.782;10.282;2023-04-16T03:47:37;100469.19;;;12.91
26158;BMP280;67284;44.782;10.282;2023-04-16T03:52:29;100476.84;;;12.94
26158;BMP280;67284;44.782;10.282;2023-04-16T03:57:21;100481.13;;;12.95
26158;BMP280;67284;44.782;10.282;2023-04-16T04:02:13;100482.03;;;12.94
26158;BMP280;67284;44.782;10.282;2023-04-16T04:07:06;100488.88;;;12.95
26158;BMP280;67284;44.782;10.282;2023-04-16T04:11:58;100489.78;;;12.94
26158;BMP280;67284;44.782;10.282;2023-04-16T04:16:51;100491.44;;;12.95
26158;BMP280;67284;44.782;10.282;2023-04-16T04:21:43;100504.38;;;12.95
26158;BMP280;67284;44.782;10.282;2023-04-16T04:26:34;100507.94;;;12.91
26158;BMP280;67284;44.782;10.282;2023-04-16T04:31:27;100519.19;;;12.87
26158;BMP280;67284;44.782;10.282;2023-04-16T04:36:19;100534.00;;;12.78
26158;BMP280;67284;44.782;10.282;2023-04-16T04:41:11;100536.72;;;12.72
26158;BMP280;67284;44.782;10.282;2023-04-16T04:46:03;100543.75;;;12.64
26158;BMP280;67284;44.782;10.282;2023-04-16T04:50:56;100536.94;;;12.60
26158;BMP280;67284;44.782;10.282;2023-04-16T04:55:48;100541.22;;;12.62
26158;BMP280;67284;44.782;10.282;2023-04-16T05:00:44;100541.13;;;12.65
26158;BMP280;67284;44.782;10.282;2023-04-16T05:05:38;100549.66;;;12.70
26158;BMP280;67284;44.782;10.282;2023-04-16T05:10:29;100553.13;;;12.68
26158;BMP280;67284;44.782;10.282;2023-04-16T05:15:21;100563.44;;;12.69
26158;BMP280;67284;44.782;10.282;2023-04-16T05:20:13;100568.56;;;12.71
26158;BMP280;67284;44.782;10.282;2023-04-16T05:25:05;100578.84;;;12.72
26158;BMP280;67284;44.782;10.282;2023-04-16T05:29:57;100583.91;;;12.77
26158;BMP280;67284;44.782;10.282;2023-04-16T05:34:49;100582.16;;;12.80
26158;BMP280;67284;44.782;10.282;2023-04-16T05:39:41;100595.00;;;12.83
26158;BMP280;67284;44.782;10.282;2023-04-16T05:44:33;100601.91;;;12.84
26158;BMP280;67284;44.782;10.282;2023-04-16T05:49:24;100600.16;;;12.85
26158;BMP280;67284;44.782;10.282;2023-04-16T05:54:16;100611.28;;;12.87
26158;BMP280;67284;44.782;10.282;2023-04-16T05:59:08;100610.38;;;12.89
26158;BMP280;67284;44.782;10.282;2023-04-16T06:04:00;100613.78;;;12.93
26158;BMP280;67284;44.782;10.282;2023-04-16T06:08:53;100618.06;;;12.92
26158;BMP280;67284;44.782;10.282;2023-04-16T06:13:44;100617.22;;;12.92
26158;BMP280;67284;44.782;10.282;2023-04-16T06:18:36;100625.81;;;12.92
26158;BMP280;67284;44.782;10.282;2023-04-16T06:23:28;100627.53;;;12.93
26158;BMP280;67284;44.782;10.282;2023-04-16T06:28:20;100628.41;;;12.92
26158;BMP280;67284;44.782;10.282;2023-04-16T06:33:12;100630.97;;;12.92
26158;BMP280;67284;44.782;10.282;2023-04-16T06:38:04;100629.25;;;12.93
26158;BMP280;67284;44.782;10.282;2023-04-16T06:42:56;100629.22;;;12.94
26158;BMP280;67284;44.782;10.282;2023-04-16T06:47:48;100626.63;;;12.96
26158;BMP280;67284;44.782;10.282;2023-04-16T06:52:40;100640.31;;;12.99
26158;BMP280;67284;44.782;10.282;2023-04-16T06:57:32;100643.72;;;13.01
26158;BMP280;67284;44.782;10.282;2023-04-16T07:02:27;100654.00;;;13.04
26158;BMP280;67284;44.782;10.282;2023-04-16T07:07:19;100637.56;;;13.08
26158;BMP280;67284;44.782;10.282;2023-04-16T07:12:11;100627.22;;;13.08
26158;BMP280;67284;44.782;10.282;2023-04-16T07:17:03;100634.03;;;13.10
26158;BMP280;67284;44.782;10.282;2023-04-16T07:21:55;100627.94;;;13.13
26158;BMP280;67284;44.782;10.282;2023-04-16T07:26:47;100629.66;;;13.14
26158;BMP280;67284;44.782;10.282;2023-04-16T07:31:39;100621.94;;;13.12
26158;BMP280;67284;44.782;10.282;2023-04-16T07:36:31;100624.63;;;13.08
26158;BMP280;67284;44.782;10.282;2023-04-16T07:41:22;100628.88;;;13.12
26158;BMP280;67284;44.782;10.282;2023-04-16T07:46:14;100633.03;;;13.17
26158;BMP280;67284;44.782;10.282;2023-04-16T07:51:06;100637.25;;;13.21
26158;BMP280;67284;44.782;10.282;2023-04-16T07:55:58;100638.94;;;13.22
26158;BMP280;67284;44.782;10.282;2023-04-16T08:00:50;100639.00;;;13.21
26158;BMP280;67284;44.782;10.282;2023-04-16T08:05:42;100645.88;;;13.22
26158;BMP280;67284;44.782;10.282;2023-04-16T08:10:34;100653.50;;;13.26
26158;BMP280;67284;44.782;10.282;2023-04-16T08:15:26;100662.81;;;13.35
26158;BMP280;67284;44.782;10.282;2023-04-16T08:20:18;100667.00;;;13.40
26158;BMP280;67284;44.782;10.282;2023-04-16T08:25:13;100668.53;;;13.49
26158;BMP280;67284;44.782;10.282;2023-04-16T08:30:06;100668.41;;;13.53
26158;BMP280;67284;44.782;10.282;2023-04-16T08:34:58;100674.50;;;13.51
26158;BMP280;67284;44.782;10.282;2023-04-16T08:39:50;100678.53;;;13.62
26158;BMP280;67284;44.782;10.282;2023-04-16T08:44:47;100678.31;;;13.72
26158;BMP280;67284;44.782;10.282;2023-04-16T08:49:43;100677.25;;;13.81
26158;BMP280;67284;44.782;10.282;2023-04-16T08:54:45;100686.69;;;13.83
26158;BMP280;67284;44.782;10.282;2023-04-16T08:59:47;100686.56;;;13.88
26158;BMP280;67284;44.782;10.282;2023-04-16T09:04:40;100698.38;;;13.99
26158;BMP280;67284;44.782;10.282;2023-04-16T09:09:34;100704.31;;;14.02
26158;BMP280;67284;44.782;10.282;2023-04-16T09:14:25;100693.75;;;14.13
26158;BMP280;67284;44.782;10.282;2023-04-16T09:19:17;100710.84;;;14.20
26158;BMP280;67284;44.782;10.282;2023-04-16T09:24:10;100708.00;;;14.29
26158;BMP280;67284;44.782;10.282;2023-04-16T09:29:02;100704.69;;;14.24
26158;BMP280;67284;44.782;10.282;2023-04-16T09:34:05;100696.94;;;14.24
26158;BMP280;67284;44.782;10.282;2023-04-16T09:38:58;100707.13;;;14.30
26158;BMP280;67284;44.782;10.282;2023-04-16T09:43:57;100702.88;;;14.27
26158;BMP280;67284;44.782;10.282;2023-04-16T09:48:49;100704.16;;;14.45
26158;BMP280;67284;44.782;10.282;2023-04-16T09:53:41;100691.06;;;14.51
26158;BMP280;67284;44.782;10.282;2023-04-16T09:58:36;100686.56;;;14.57
26158;BMP280;67284;44.782;10.282;2023-04-16T10:03:30;100695.03;;;14.63
26158;BMP280;67284;44.782;10.282;2023-04-16T10:08:25;100678.09;;;14.82
26158;BMP280;67284;44.782;10.282;2023-04-16T10:13:18;100686.72;;;14.83
26158;BMP280;67284;44.782;10.282;2023-04-16T10:18:11;100686.88;;;14.78
26158;BMP280;67284;44.782;10.282;2023-04-16T10:23:04;100679.84;;;14.82
26158;BMP280;67284;44.782;10.282;2023-04-16T10:27:56;100679.81;;;14.83
26158;BMP280;67284;44.782;10.282;2023-04-16T10:32:48;100682.78;;;15.00
26158;BMP280;67284;44.782;10.282;2023-04-16T10:37:41;100678.56;;;14.96
26158;BMP280;67284;44.782;10.282;2023-04-16T10:42:32;100674.75;;;15.09
26158;BMP280;67284;44.782;10.282;2023-04-16T10:47:25;100677.03;;;15.21
26158;BMP280;67284;44.782;10.282;2023-04-16T10:52:17;100661.22;;;15.30
26158;BMP280;67284;44.782;10.282;2023-04-16T10:57:14;100658.41;;;15.37
26158;BMP280;67284;44.782;10.282;2023-04-16T11:02:14;100656.53;;;15.41
26158;BMP280;67284;44.782;10.282;2023-04-16T11:12:06;100647.69;;;15.48
26158;BMP280;67284;44.782;10.282;2023-04-16T11:17:02;100639.31;;;15.40
26158;BMP280;67284;44.782;10.282;2023-04-16T11:21:54;100634.91;;;15.42
26158;BMP280;67284;44.782;10.282;2023-04-16T11:26:50;100638.00;;;15.54
26158;BMP280;67284;44.782;10.282;2023-04-16T11:31:48;100642.56;;;15.73
26158;BMP280;67284;44.782;10.282;2023-04-16T11:36:43;100634.59;;;15.79
26158;BMP280;67284;44.782;10.282;2023-04-16T11:41:44;100635.00;;;15.93
26158;BMP280;67284;44.782;10.282;2023-04-16T11:46:38;100627.31;;;15.90
26158;BMP280;67284;44.782;10.282;2023-04-16T11:51:30;100622.50;;;15.78
26158;BMP280;67284;44.782;10.282;2023-04-16T11:56:30;100631.56;;;15.65
26158;BMP280;67284;44.782;10.282;2023-04-16T12:01:22;100625.91;;;15.80
26158;BMP280;67284;44.782;10.282;2023-04-16T12:06:14;100617.88;;;15.88
26158;BMP280;67284;44.782;10.282;2023-04-16T12:11:06;100619.59;;;15.89
26158;BMP280;67284;44.782;10.282;2023-04-16T12:15:58;100611.16;;;16.08
26158;BMP280;67284;44.782;10.282;2023-04-16T12:20:50;100610.81;;;16.17
26158;BMP280;67284;44.782;10.282;2023-04-16T12:25:42;100609.16;;;16.14
26158;BMP280;67284;44.782;10.282;2023-04-16T12:30:48;100593.88;;;16.07
26158;BMP280;67284;44.782;10.282;2023-04-16T12:35:41;100597.78;;;16.18
26158;BMP280;67284;44.782;10.282;2023-04-16T12:40:33;100586.75;;;16.12
26158;BMP280;67284;44.782;10.282;2023-04-16T12:45:26;100588.25;;;16.19
26158;BMP280;67284;44.782;10.282;2023-04-16T12:50:18;100582.22;;;16.18
26158;BMP280;67284;44.782;10.282;2023-04-16T12:55:10;100575.94;;;16.25
26158;BMP280;67284;44.782;10.282;2023-04-16T13:00:03;100571.47;;;16.29
26158;BMP280;67284;44.782;10.282;2023-04-16T13:04:57;100568.47;;;16.41
26158;BMP280;67284;44.782;10.282;2023-04-16T13:09:49;100557.88;;;16.47
26158;BMP280;67284;44.782;10.282;2023-04-16T13:14:40;100564.66;;;16.51
26158;BMP280;67284;44.782;10.282;2023-04-16T13:19:35;100563.41;;;16.61
26158;BMP280;67284;44.782;10.282;2023-04-16T13:24:27;100552.19;;;16.60
26158;BMP280;67284;44.782;10.282;2023-04-16T13:29:19;100544.56;;;16.56
26158;BMP280;67284;44.782;10.282;2023-04-16T13:34:11;100548.47;;;16.43
26158;BMP280;67284;44.782;10.282;2023-04-16T13:39:03;100542.81;;;16.56
26158;BMP280;67284;44.782;10.282;2023-04-16T13:43:55;100543.59;;;16.58
26158;BMP280;67284;44.782;10.282;2023-04-16T13:48:47;100543.44;;;16.63
26158;BMP280;67284;44.782;10.282;2023-04-16T13:53:39;100525.22;;;16.40
26158;BMP280;67284;44.782;10.282;2023-04-16T13:58:32;100528.47;;;16.46
26158;BMP280;67284;44.782;10.282;2023-04-16T14:03:24;100523.94;;;16.51
26158;BMP280;67284;44.782;10.282;2023-04-16T14:08:18;100529.06;;;16.53
26158;BMP280;67284;44.782;10.282;2023-04-16T14:13:11;100520.22;;;16.58
26158;BMP280;67284;44.782;10.282;2023-04-16T14:18:03;100515.81;;;16.60
26158;BMP280;67284;44.782;10.282;2023-04-16T14:22:55;100509.38;;;16.47
26158;BMP280;67284;44.782;10.282;2023-04-16T14:27:48;100512.47;;;16.57
26158;BMP280;67284;44.782;10.282;2023-04-16T14:32:39;100510.81;;;16.56
26158;BMP280;67284;44.782;10.282;2023-04-16T14:37:31;100519.38;;;16.58
26158;BMP280;67284;44.782;10.282;2023-04-16T14:42:26;100507.41;;;16.54
26158;BMP280;67284;44.782;10.282;2023-04-16T14:47:18;100511.53;;;16.36
26158;BMP280;67284;44.782;10.282;2023-04-16T14:52:10;100509.13;;;16.30
26158;BMP280;67284;44.782;10.282;2023-04-16T14:57:02;100517.84;;;16.29
26158;BMP280;67284;44.782;10.282;2023-04-16T15:01:54;100515.72;;;16.40
26158;BMP280;67284;44.782;10.282;2023-04-16T15:06:47;100509.41;;;16.46
26158;BMP280;67284;44.782;10.282;2023-04-16T15:11:40;100517.91;;;16.51
26158;BMP280;67284;44.782;10.282;2023-04-16T15:16:32;100522.25;;;16.50
26158;BMP280;67284;44.782;10.282;2023-04-16T15:21:24;100522.63;;;16.40
26158;BMP280;67284;44.782;10.282;2023-04-16T15:26:17;100523.06;;;16.28
26158;BMP280;67284;44.782;10.282;2023-04-16T15:31:08;100521.38;;;16.27
26158;BMP280;67284;44.782;10.282;2023-04-16T15:36:00;100524.16;;;16.21
26158;BMP280;67284;44.782;10.282;2023-04-16T15:40:52;100533.78;;;16.17
26158;BMP280;67284;44.782;10.282;2023-04-16T15:45:44;100526.06;;;16.16
26158;BMP280;67284;44.782;10.282;2023-04-16T15:50:36;100530.56;;;16.11
26158;BMP280;67284;44.782;10.282;2023-04-16T15:55:28;100526.44;;;16.06
26158;BMP280;67284;44.782;10.282;2023-04-16T16:00:20;100533.22;;;16.10
26158;BMP280;67284;44.782;10.282;2023-04-16T16:05:12;100533.22;;;16.10
26158;BMP280;67284;44.782;10.282;2023-04-16T16:10:06;100535.19;;;16.03
26158;BMP280;67284;44.782;10.282;2023-04-16T16:14:58;100537.72;;;16.05
26158;BMP280;67284;44.782;10.282;2023-04-16T16:19:50;100543.91;;;16.01
26158;BMP280;67284;44.782;10.282;2023-04-16T16:24:42;100543.84;;;16.02
26158;BMP280;67284;44.782;10.282;2023-04-16T16:29:34;100552.56;;;16.01
26158;BMP280;67284;44.782;10.282;2023-04-16T16:34:26;100554.38;;;15.98
26158;BMP280;67284;44.782;10.282;2023-04-16T16:39:18;100564.88;;;15.95
26158;BMP280;67284;44.782;10.282;2023-04-16T16:44:14;100556.44;;;15.88
26158;BMP280;67284;44.782;10.282;2023-04-16T16:49:06;100565.25;;;15.84
26158;BMP280;67284;44.782;10.282;2023-04-16T16:54:00;100574.03;;;15.80
26158;BMP280;67284;44.782;10.282;2023-04-16T16:58:52;100575.81;;;15.78
26158;BMP280;67284;44.782;10.282;2023-04-16T17:03:44;100583.84;;;15.71
26158;BMP280;67284;44.782;10.282;2023-04-16T17:08:36;100586.50;;;15.69
26158;BMP280;67284;44.782;10.282;2023-04-16T17:13:28;100586.59;;;15.66
26158;BMP280;67284;44.782;10.282;2023-04-16T17:18:20;100588.31;;;15.66
26158;BMP280;67284;44.782;10.282;2023-04-16T17:23:12;100591.88;;;15.63
26158;BMP280;67284;44.782;10.282;2023-04-16T17:28:04;100588.56;;;15.59
26158;BMP280;67284;44.782;10.282;2023-04-16T17:32:56;100594.75;;;15.55
26158;BMP280;67284;44.782;10.282;2023-04-16T17:37:48;100611.28;;;15.51
26158;BMP280;67284;44.782;10.282;2023-04-16T17:42:40;100621.75;;;15.48
26158;BMP280;67284;44.782;10.282;2023-04-16T17:47:35;100621.84;;;15.45
26158;BMP280;67284;44.782;10.282;2023-04-16T17:52:27;100628.91;;;15.41
26158;BMP280;67284;44.782;10.282;2023-04-16T17:57:19;100629.00;;;15.38
26158;BMP280;67284;44.782;10.282;2023-04-16T18:02:11;100623.88;;;15.35
26158;BMP280;67284;44.782;10.282;2023-04-16T18:07:03;100629.19;;;15.31
26158;BMP280;67284;44.782;10.282;2023-04-16T18:11:55;100649.25;;;15.26
26158;BMP280;67284;44.782;10.282;2023-04-16T18:16:48;100653.66;;;15.22
26158;BMP280;67284;44.782;10.282;2023-04-16T18:21:39;100672.72;;;15.20
26158;BMP280;67284;44.782;10.282;2023-04-16T18:26:31;100666.75;;;15.16
26158;BMP280;67284;44.782;10.282;2023-04-16T18:31:26;100678.09;;;15.12
26158;BMP280;67284;44.782;10.282;2023-04-16T18:36:18;100679.03;;;15.10
26158;BMP280;67284;44.782;10.282;2023-04-16T18:41:19;100680.88;;;15.07
26158;BMP280;67284;44.782;10.282;2023-04-16T18:46:11;100694.72;;;15.06
26158;BMP280;67284;44.782;10.282;2023-04-16T18:51:04;100694.75;;;15.04
26158;BMP280;67284;44.782;10.282;2023-04-16T18:55:56;100701.75;;;15.02
26158;BMP280;67284;44.782;10.282;2023-04-16T19:00:52;100700.97;;;14.99
26158;BMP280;67284;44.782;10.282;2023-04-16T19:05:44;100725.19;;;14.96
26158;BMP280;67284;44.782;10.282;2023-04-16T19:10:36;100727.00;;;14.94
26158;BMP280;67284;44.782;10.282;2023-04-16T19:15:28;100752.91;;;14.94
26158;BMP280;67284;44.782;10.282;2023-04-16T19:20:23;100753.00;;;14.91
26158;BMP280;67284;44.782;10.282;2023-04-16T19:25:15;100756.56;;;14.87
26158;BMP280;67284;44.782;10.282;2023-04-16T19:30:07;100754.84;;;14.86
26158;BMP280;67284;44.782;10.282;2023-04-16T19:34:59;100763.53;;;14.85
26158;BMP280;67284;44.782;10.282;2023-04-16T19:39:51;100772.19;;;14.84
26158;BMP280;67284;44.782;10.282;2023-04-16T19:44:45;100773.94;;;14.82
26158;BMP280;67284;44.782;10.282;2023-04-16T19:49:37;100772.31;;;14.80
26158;BMP280;67284;44.782;10.282;2023-04-16T19:54:28;100778.41;;;14.77
26158;BMP280;67284;44.782;10.282;2023-04-16T19:59:24;100764.66;;;14.75
26158;BMP280;67284;44.782;10.282;2023-04-16T20:04:18;100770.75;;;14.73
26158;BMP280;67284;44.782;10.282;2023-04-16T20:09:10;100772.50;;;14.71
26158;BMP280;67284;44.782;10.282;2023-04-16T20:14:02;100773.47;;;14.68
26158;BMP280;67284;44.782;10.282;2023-04-16T20:18:54;100772.63;;;14.66
26158;BMP280;67284;44.782;10.282;2023-04-16T20:23:46;100771.84;;;14.64
26158;BMP280;67284;44.782;10.282;2023-04-16T20:28:38;100771.88;;;14.63
26158;BMP280;67284;44.782;10.282;2023-04-16T20:33:30;100770.16;;;14.62
26158;BMP280;67284;44.782;10.282;2023-04-16T20:38:22;100784.91;;;14.58
26158;BMP280;67284;44.782;10.282;2023-04-16T20:43:14;100775.50;;;14.56
26158;BMP280;67284;44.782;10.282;2023-04-16T20:48:09;100780.72;;;14.55
26158;BMP280;67284;44.782;10.282;2023-04-16T20:53:02;100779.09;;;14.51
26158;BMP280;67284;44.782;10.282;2023-04-16T20:57:54;100786.03;;;14.49
26158;BMP280;67284;44.782;10.282;2023-04-16T21:02:46;100776.63;;;14.46
26158;BMP280;67284;44.782;10.282;2023-04-16T21:07:38;100781.78;;;14.46
26158;BMP280;67284;44.782;10.282;2023-04-16T21:12:30;100787.03;;;14.45
26158;BMP280;67284;44.782;10.282;2023-04-16T21:17:22;100788.78;;;14.43
26158;BMP280;67284;44.782;10.282;2023-04-16T21:22:14;100778.50;;;14.40
26158;BMP280;67284;44.782;10.282;2023-04-16T21:27:06;100774.31;;;14.34
26158;BMP280;67284;44.782;10.282;2023-04-16T21:31:58;100783.91;;;14.31
26158;BMP280;67284;44.782;10.282;2023-04-16T21:36:50;100783.97;;;14.28
26158;BMP280;67284;44.782;10.282;2023-04-16T21:41:42;100785.81;;;14.23
26158;BMP280;67284;44.782;10.282;2023-04-16T21:46:33;100772.91;;;14.21
26158;BMP280;67284;44.782;10.282;2023-04-16T21:51:25;100776.38;;;14.20
26158;BMP280;67284;44.782;10.282;2023-04-16T21:56:20;100781.56;;;14.19
26158;BMP280;67284;44.782;10.282;2023-04-16T22:01:12;100779.00;;;14.19
26158;BMP280;67284;44.782;10.282;2023-04-16T22:06:04;100783.28;;;14.20
26158;BMP280;67284;44.782;10.282;2023-04-16T22:11:01;100775.53;;;14.20
26158;BMP280;67284;44.782;10.282;2023-04-16T22:15:53;100771.22;;;14.19
26158;BMP280;67284;44.782;10.282;2023-04-16T22:20:45;100767.88;;;14.15
26158;BMP280;67284;44.782;10.282;2023-04-16T22:25:41;100772.25;;;14.12
26158;BMP280;67284;44.782;10.282;2023-04-16T22:30:33;100774.88;;;14.10
26158;BMP280;67284;44.782;10.282;2023-04-16T22:35:25;100775.78;;;14.08
26158;BMP280;67284;44.782;10.282;2023-04-16T22:40:16;100774.31;;;13.97
26158;BMP280;67284;44.782;10.282;2023-04-16T22:45:09;100770.09;;;13.91
26158;BMP280;67284;44.782;10.282;2023-04-16T22:50:01;100771.03;;;13.90
26158;BMP280;67284;44.782;10.282;2023-04-16T22:54:53;100774.63;;;13.83
26158;BMP280;67284;44.782;10.282;2023-04-16T22:59:45;100777.25;;;13.80
26158;BMP280;67284;44.782;10.282;2023-04-16T23:04:37;100775.53;;;13.81
26158;BMP280;67284;44.782;10.282;2023-04-16T23:09:29;100774.63;;;13.83
26158;BMP280;67284;44.782;10.282;2023-04-16T23:14:21;100759.09;;;13.83
26158;BMP280;67284;44.782;10.282;2023-04-16T23:19:14;100764.28;;;13.83
26158;BMP280;67284;44.782;10.282;2023-04-16T23:24:06;100769.50;;;13.80
26158;BMP280;67284;44.782;10.282;2023-04-16T23:28:58;100769.56;;;13.77
26158;BMP280;67284;44.782;10.282;2023-04-16T23:33:50;100771.41;;;13.72
26158;BMP280;67284;44.782;10.282;2023-04-16T23:38:42;100772.34;;;13.68
26158;BMP280;67284;44.782;10.282;2023-04-16T23:43:34;100766.38;;;13.66
26158;BMP280;67284;44.782;10.282;2023-04-16T23:48:27;100764.59;;;13.68
26158;BMP280;67284;44.782;10.282;2023-04-16T23:53:19;100778.41;;;13.67
26158;BMP280;67284;44.782;10.282;2023-04-16T23:58:11;100767.41;;;13.56
